Time;durP1;ratioP1;P1;durP2;ratioP2;P2;SDS_P1;SDS_P2;PMS_P1;PMS_P2;Temp;Humidity;BMP_temperature;BMP_pressure;BME280_temperature;BME280_humidity;BME280_pressure;Samples;Min_cycle;Max_cycle;Signal;HPM_P1;HPM_P2
2022/01/14 00:02:15;;;;;;;4.88;1.20;;;26.70;99.90;;;;;;5069398;28;20217;-84
2022/01/14 00:04:50;;;;;;;5.55;1.30;;;26.80;99.90;;;;;;5071518;28;20188;-81
2022/01/14 00:07:21;;;;;;;4.75;1.30;;;26.80;99.90;;;;;;5069287;28;20196;-82
2022/01/14 00:09:53;;;;;;;4.72;1.10;;;26.60;99.90;;;;;;5073259;28;20196;-81
2022/01/14 00:12:28;;;;;;;7.10;1.20;;;26.30;99.90;;;;;;5072544;28;20191;-81
2022/01/14 00:15:11;;;;;;;4.43;1.40;;;26.50;99.90;;;;;;5071700;28;20311;-81
2022/01/14 00:17:42;;;;;;;7.22;1.50;;;26.80;99.90;;;;;;5070027;28;20181;-82
2022/01/14 00:20:16;;;;;;;5.80;1.30;;;26.80;99.90;;;;;;5073043;28;20292;-81
2022/01/14 00:22:46;;;;;;;4.22;1.10;;;26.70;99.90;;;;;;5072816;28;20268;-82
2022/01/14 00:33:37;;;;;;;6.80;1.38;;;27.30;99.90;;;;;;5067527;28;20638;-82
2022/01/14 00:36:10;;;;;;;5.00;1.38;;;27.40;99.90;;;;;;5062127;28;20201;-82
2022/01/14 00:38:41;;;;;;;5.45;1.20;;;27.60;99.90;;;;;;5063616;28;20198;-82
2022/01/14 00:41:13;;;;;;;6.28;1.27;;;27.60;99.90;;;;;;5064120;28;20235;-83
2022/01/14 00:43:44;;;;;;;5.82;1.33;;;27.60;99.90;;;;;;5066546;28;20208;-81
2022/01/14 00:46:15;;;;;;;4.57;1.50;;;27.80;99.90;;;;;;5066187;28;20205;-82
2022/01/14 00:48:46;;;;;;;5.18;1.23;;;27.60;99.90;;;;;;5066561;28;20231;-81
2022/01/14 00:51:22;;;;;;;5.78;1.50;;;27.50;99.90;;;;;;5066296;28;20201;-81
2022/01/14 00:53:52;;;;;;;5.63;1.27;;;27.50;99.90;;;;;;5066877;28;20337;-81
2022/01/14 00:56:29;;;;;;;4.03;1.10;;;27.40;99.90;;;;;;5063592;28;20265;-81
2022/01/14 00:59:17;;;;;;;5.97;1.52;;;27.40;99.90;;;;;;5065876;28;20203;-81
2022/01/14 01:01:49;;;;;;;7.00;1.13;;;27.40;99.90;;;;;;5066068;28;20216;-83
2022/01/14 01:04:22;;;;;;;4.90;1.00;;;27.50;99.90;;;;;;5067685;28;20280;-81
2022/01/14 01:06:54;;;;;;;3.45;1.10;;;27.40;99.90;;;;;;5070086;28;20254;-83
2022/01/14 01:09:26;;;;;;;3.65;1.25;;;27.40;99.90;;;;;;5069718;28;20671;-83
2022/01/14 01:12:08;;;;;;;5.28;1.20;;;27.60;99.90;;;;;;5068849;28;20213;-81
2022/01/14 01:14:44;;;;;;;4.47;1.10;;;27.60;99.90;;;;;;5068674;28;20328;-80
2022/01/14 01:17:15;;;;;;;5.65;1.17;;;27.50;99.90;;;;;;5067554;28;20238;-84
2022/01/14 01:19:47;;;;;;;5.13;1.40;;;27.50;99.90;;;;;;5069793;28;20237;-82
2022/01/14 01:22:19;;;;;;;6.72;1.17;;;27.60;99.90;;;;;;5070158;28;20209;-81
2022/01/14 01:24:50;;;;;;;5.10;1.20;;;27.80;99.90;;;;;;5068926;28;20197;-82
2022/01/14 01:27:21;;;;;;;4.03;1.10;;;27.80;99.90;;;;;;5069901;28;20693;-82
2022/01/14 01:30:00;;;;;;;3.65;1.00;;;27.60;99.90;;;;;;5069881;28;20775;-81
2022/01/14 01:32:30;;;;;;;6.43;1.30;;;27.80;99.90;;;;;;5069776;28;20568;-83
2022/01/14 01:35:01;;;;;;;5.43;1.30;;;27.80;99.90;;;;;;5070334;28;20204;-87
2022/01/14 01:37:33;;;;;;;4.22;1.20;;;27.80;99.90;;;;;;5068659;28;20197;-81
2022/01/14 01:40:05;;;;;;;5.55;1.27;;;27.80;99.90;;;;;;5068887;28;20217;-85
2022/01/14 01:42:36;;;;;;;4.63;1.17;;;27.90;99.90;;;;;;5067949;28;20305;-82
2022/01/14 01:45:10;;;;;;;5.00;1.40;;;27.90;99.90;;;;;;5069149;28;20220;-83
2022/01/14 01:47:41;;;;;;;6.85;1.50;;;27.80;99.90;;;;;;5069347;28;20201;-83
2022/01/14 01:50:14;;;;;;;3.85;1.13;;;27.60;99.90;;;;;;5068324;28;20565;-81
2022/01/14 01:52:47;;;;;;;6.25;1.40;;;27.50;99.90;;;;;;5072717;28;20208;-83
2022/01/14 01:55:20;;;;;;;3.55;1.10;;;27.40;99.90;;;;;;5067945;28;20197;-84
2022/01/14 01:57:51;;;;;;;4.38;1.40;;;27.70;99.90;;;;;;5075669;28;20288;-83
2022/01/14 02:00:24;;;;;;;5.95;1.10;;;27.80;99.90;;;;;;5075910;28;20229;-83
2022/01/14 02:02:56;;;;;;;6.00;1.10;;;27.90;99.90;;;;;;5075313;28;20224;-84
2022/01/14 02:05:27;;;;;;;6.13;1.30;;;28.00;99.90;;;;;;5075887;28;20276;-83
2022/01/14 02:07:59;;;;;;;6.38;1.38;;;28.10;99.90;;;;;;5066064;28;20201;-86
2022/01/14 02:10:30;;;;;;;5.20;1.15;;;28.10;99.90;;;;;;5074641;28;20214;-84
2022/01/14 02:13:01;;;;;;;4.22;1.20;;;28.00;99.90;;;;;;5075848;28;20196;-83
2022/01/14 02:15:46;;;;;;;5.60;1.20;;;28.10;99.90;;;;;;5074308;28;20232;-83
2022/01/14 02:18:37;;;;;;;3.92;1.00;;;28.10;99.90;;;;;;5075432;28;20195;-83
2022/01/14 02:24:20;;;;;;;6.95;1.20;;;28.10;99.90;;;;;;5075705;28;20660;-82
2022/01/14 02:26:52;;;;;;;3.50;1.08;;;28.00;99.90;;;;;;5071698;28;20266;-82
2022/01/14 02:29:24;;;;;;;7.90;1.40;;;28.00;99.90;;;;;;5070038;28;20272;-81
2022/01/14 02:31:55;;;;;;;6.38;1.25;;;28.00;99.90;;;;;;5074782;28;20193;-83
2022/01/14 02:34:26;;;;;;;5.00;1.30;;;27.80;99.90;;;;;;5073415;28;20193;-83
2022/01/14 02:36:58;;;;;;;1.70;0.95;;;27.80;99.90;;;;;;5074545;28;20564;-82
2022/01/14 02:39:29;;;;;;;5.10;1.38;;;27.90;99.90;;;;;;5072202;28;20197;-82
2022/01/14 02:42:00;;;;;;;7.93;1.13;;;27.80;99.90;;;;;;5073060;28;20181;-82
2022/01/14 02:44:32;;;;;;;7.82;1.20;;;27.50;99.90;;;;;;5075010;28;20200;-82
2022/01/14 02:47:06;;;;;;;3.90;1.10;;;27.60;99.90;;;;;;5074750;28;20193;-82
2022/01/14 02:49:38;;;;;;;7.55;1.13;;;27.70;99.90;;;;;;5075058;28;20193;-82
2022/01/14 02:52:12;;;;;;;5.22;1.42;;;27.80;99.90;;;;;;5074879;28;20239;-83
2022/01/14 02:55:02;;;;;;;3.13;0.90;;;27.70;99.90;;;;;;5073765;28;20272;-82
2022/01/14 02:57:34;;;;;;;4.80;1.00;;;27.80;99.90;;;;;;5074296;28;20232;-83
2022/01/14 03:00:05;;;;;;;4.28;1.23;;;27.70;99.90;;;;;;5074438;28;20212;-82
2022/01/14 03:02:38;;;;;;;7.20;1.50;;;27.80;99.90;;;;;;5088662;28;20224;-82
2022/01/14 03:05:10;;;;;;;5.13;1.25;;;27.90;99.90;;;;;;5076157;28;20204;-81
2022/01/14 03:07:43;;;;;;;4.93;1.15;;;27.80;99.90;;;;;;5074789;28;20189;-83
2022/01/14 03:10:16;;;;;;;7.25;1.25;;;27.70;99.90;;;;;;5074792;28;20193;-83
2022/01/14 03:12:47;;;;;;;8.02;1.40;;;27.60;99.90;;;;;;5074546;28;20201;-83
2022/01/14 03:15:21;;;;;;;6.55;1.55;;;27.70;99.90;;;;;;5074320;28;20229;-83
2022/01/14 03:17:51;;;;;;;3.97;1.30;;;27.70;99.90;;;;;;5074235;28;20221;-81
2022/01/14 03:20:46;;;;;;;5.35;1.33;;;27.90;99.90;;;;;;5058485;28;20213;-82
2022/01/14 03:23:19;;;;;;;4.68;1.30;;;28.00;99.90;;;;;;5054738;28;20198;-82
2022/01/14 03:25:51;;;;;;;8.57;1.75;;;28.00;99.90;;;;;;5053859;28;20602;-82
2022/01/14 03:28:23;;;;;;;5.32;1.40;;;28.00;99.90;;;;;;5061640;28;20534;-82
2022/01/14 03:30:55;;;;;;;3.38;1.20;;;28.00;99.90;;;;;;5073971;28;20193;-82
2022/01/14 03:33:25;;;;;;;5.50;1.30;;;27.90;99.90;;;;;;5074148;28;20599;-82
2022/01/14 03:35:56;;;;;;;5.55;1.60;;;27.70;99.90;;;;;;5074118;28;20211;-82
2022/01/14 03:38:29;;;;;;;5.85;1.40;;;27.60;99.90;;;;;;5074063;28;20196;-82
2022/01/14 03:40:59;;;;;;;4.93;1.30;;;27.60;99.90;;;;;;5073996;28;20227;-82
2022/01/14 03:43:30;;;;;;;8.30;1.70;;;27.70;99.90;;;;;;5073928;28;20196;-83
2022/01/14 03:46:00;;;;;;;5.03;1.58;;;27.90;99.90;;;;;;5073734;28;20246;-83
2022/01/14 03:48:31;;;;;;;7.75;1.70;;;27.90;99.90;;;;;;5073832;28;20193;-82
2022/01/14 03:51:02;;;;;;;7.78;2.05;;;27.70;99.90;;;;;;5071170;28;20201;-82
2022/01/14 03:53:34;;;;;;;4.32;1.42;;;27.60;99.90;;;;;;5073720;28;20193;-81
2022/01/14 03:56:05;;;;;;;6.18;1.50;;;27.70;99.90;;;;;;5073880;28;20196;-79
2022/01/14 03:58:36;;;;;;;5.97;1.50;;;27.90;99.90;;;;;;5073163;28;20196;-84
2022/01/14 04:01:07;;;;;;;7.22;1.80;;;27.80;99.90;;;;;;5072851;28;20294;-80
2022/01/14 04:03:38;;;;;;;6.65;1.38;;;27.80;99.90;;;;;;5073033;28;20303;-81
2022/01/14 04:06:10;;;;;;;10.38;1.98;;;28.00;99.90;;;;;;5053518;28;20193;-82
2022/01/14 04:08:43;;;;;;;7.13;1.40;;;28.00;99.90;;;;;;5053945;28;20687;-82
2022/01/14 04:11:15;;;;;;;6.70;1.63;;;28.00;99.90;;;;;;5053570;28;20554;-82
2022/01/14 04:13:49;;;;;;;5.75;1.70;;;27.80;99.90;;;;;;5052939;28;20196;-82
2022/01/14 04:16:21;;;;;;;5.80;1.73;;;27.90;99.90;;;;;;5058660;28;20241;-83
2022/01/14 04:18:53;;;;;;;8.88;2.20;;;27.90;99.90;;;;;;5073274;28;20197;-81
2022/01/14 04:21:26;;;;;;;5.18;1.90;;;27.90;99.90;;;;;;5073237;28;20220;-80
2022/01/14 04:23:58;;;;;;;6.40;1.50;;;27.80;99.90;;;;;;5073402;28;20255;-80
2022/01/14 04:26:29;;;;;;;6.85;1.80;;;27.80;99.90;;;;;;5073299;28;20184;-81
2022/01/14 04:28:59;;;;;;;11.20;1.98;;;27.90;99.90;;;;;;5073188;28;20586;-80
2022/01/14 04:31:30;;;;;;;7.22;1.63;;;27.90;99.90;;;;;;5073205;28;20234;-80
2022/01/14 04:34:01;;;;;;;5.63;1.80;;;27.80;99.90;;;;;;5072842;28;20667;-83
2022/01/14 04:36:31;;;;;;;8.18;1.88;;;27.90;99.90;;;;;;5073203;28;20184;-83
2022/01/14 04:39:04;;;;;;;10.93;2.28;;;27.80;99.90;;;;;;5072401;28;20193;-81
2022/01/14 04:41:34;;;;;;;6.28;1.52;;;27.70;99.90;;;;;;5073029;28;20223;-80
2022/01/14 04:44:06;;;;;;;6.85;1.42;;;27.80;99.90;;;;;;5072842;28;20185;-81
2022/01/14 04:46:49;;;;;;;7.65;1.60;;;27.90;99.90;;;;;;5073064;28;20231;-81
2022/01/14 04:49:20;;;;;;;7.55;1.40;;;27.80;99.90;;;;;;5072960;28;20280;-81
2022/01/14 04:51:51;;;;;;;5.60;1.45;;;27.80;99.90;;;;;;5072953;28;20193;-79
2022/01/14 04:54:25;;;;;;;9.27;1.80;;;27.70;99.90;;;;;;5072716;28;20557;-79
2022/01/14 04:56:56;;;;;;;5.93;1.58;;;27.40;99.90;;;;;;5073054;28;20220;-82
2022/01/14 04:59:26;;;;;;;7.38;1.63;;;27.30;99.90;;;;;;5072670;28;20193;-83
2022/01/14 05:01:58;;;;;;;4.60;1.75;;;27.40;99.90;;;;;;5071888;28;20762;-81
2022/01/14 05:04:29;;;;;;;6.88;1.85;;;27.30;99.90;;;;;;5072703;28;20205;-81
2022/01/14 05:07:02;;;;;;;7.65;1.50;;;27.20;99.90;;;;;;5073038;28;20193;-82
2022/01/14 05:09:39;;;;;;;6.75;1.80;;;27.20;99.90;;;;;;5072786;28;20224;-81
2022/01/14 05:12:11;;;;;;;5.78;1.58;;;27.20;99.90;;;;;;5072586;28;20192;-81
2022/01/14 05:14:41;;;;;;;4.68;1.52;;;27.00;99.90;;;;;;5072696;28;20233;-83
2022/01/14 05:17:12;;;;;;;7.10;1.52;;;26.90;99.90;;;;;;5067937;28;20898;-83
2022/01/14 05:19:43;;;;;;;7.30;1.70;;;26.90;99.90;;;;;;5065391;28;20201;-82
2022/01/14 05:22:13;;;;;;;9.13;3.42;;;26.80;99.90;;;;;;5065678;28;20250;-81
2022/01/14 05:24:46;;;;;;;7.97;2.20;;;26.80;99.90;;;;;;5072757;28;20185;-81
2022/01/14 05:27:16;;;;;;;9.30;1.65;;;26.70;99.90;;;;;;5071929;28;20196;-81
2022/01/14 05:29:47;;;;;;;4.50;1.60;;;26.70;99.90;;;;;;5071693;28;20185;-81
2022/01/14 05:32:19;;;;;;;6.30;1.50;;;26.60;99.90;;;;;;5067211;28;20190;-82
2022/01/14 05:34:50;;;;;;;6.05;1.50;;;26.50;99.90;;;;;;5056595;28;20186;-81
2022/01/14 05:37:21;;;;;;;6.32;1.77;;;26.50;99.90;;;;;;5072136;28;20193;-81
2022/01/14 05:39:53;;;;;;;6.30;1.50;;;26.40;99.90;;;;;;5072353;28;20190;-82
2022/01/14 05:42:24;;;;;;;6.05;1.38;;;26.40;99.90;;;;;;5066094;28;20213;-81
2022/01/14 05:44:55;;;;;;;7.53;1.55;;;26.30;99.90;;;;;;5052411;28;20194;-81
2022/01/14 05:47:25;;;;;;;7.88;1.40;;;26.30;99.90;;;;;;5054477;28;20210;-81
2022/01/14 05:49:56;;;;;;;6.32;1.42;;;26.40;99.90;;;;;;5073780;28;20185;-81
2022/01/14 05:52:27;;;;;;;4.72;1.15;;;26.40;99.90;;;;;;5064378;28;20573;-81
2022/01/14 05:54:59;;;;;;;7.95;1.30;;;26.30;99.90;;;;;;5069659;28;20204;-81
2022/01/14 05:57:30;;;;;;;7.40;1.42;;;26.30;99.90;;;;;;5062597;28;20209;-81
2022/01/14 06:00:01;;;;;;;8.85;1.55;;;26.30;99.90;;;;;;5068524;28;20211;-80
2022/01/14 06:02:32;;;;;;;3.33;1.10;;;26.30;99.90;;;;;;5064417;28;20341;-81
2022/01/14 06:05:02;;;;;;;7.45;1.50;;;26.30;99.90;;;;;;5065889;28;20665;-81
2022/01/14 06:07:33;;;;;;;6.20;1.30;;;26.30;99.90;;;;;;5055699;28;20661;-81
2022/01/14 06:10:06;;;;;;;6.82;1.52;;;26.30;99.90;;;;;;5073950;28;20189;-81
2022/01/14 06:12:37;;;;;;;4.85;1.50;;;26.30;99.90;;;;;;5075370;28;20196;-81
2022/01/14 06:15:08;;;;;;;8.52;1.60;;;26.20;99.90;;;;;;5071002;28;20225;-82
2022/01/14 06:17:39;;;;;;;5.53;1.40;;;26.20;99.90;;;;;;5071920;28;20189;-83
2022/01/14 06:20:10;;;;;;;8.18;1.60;;;26.10;99.90;;;;;;5075431;28;20633;-82
2022/01/14 06:22:41;;;;;;;9.10;1.60;;;26.00;99.90;;;;;;5074849;28;20227;-81
2022/01/14 06:25:14;;;;;;;7.63;1.60;;;25.90;99.90;;;;;;5075319;28;20193;-82
2022/01/14 06:27:44;;;;;;;8.85;1.50;;;25.90;99.90;;;;;;5075361;28;20193;-81
2022/01/14 06:30:16;;;;;;;6.35;1.40;;;25.90;99.90;;;;;;5068280;28;20588;-82
2022/01/14 06:32:47;;;;;;;7.32;1.90;;;25.90;99.90;;;;;;5070574;28;20189;-81
2022/01/14 06:35:18;;;;;;;8.73;1.58;;;25.90;99.90;;;;;;5070422;28;20181;-81
2022/01/14 06:37:48;;;;;;;5.13;1.33;;;25.90;99.90;;;;;;5074034;28;20193;-81
2022/01/14 06:40:21;;;;;;;13.00;1.63;;;25.90;99.90;;;;;;5065094;28;20186;-83
2022/01/14 06:42:52;;;;;;;11.00;1.73;;;25.90;99.90;;;;;;5069551;28;21943;-83
2022/01/14 06:45:23;;;;;;;7.43;1.52;;;26.00;99.90;;;;;;5066189;28;20193;-81
2022/01/14 06:47:54;;;;;;;6.20;1.60;;;26.00;99.90;;;;;;5072708;28;20648;-81
2022/01/14 06:50:25;;;;;;;8.43;1.63;;;26.00;99.90;;;;;;5062283;28;20192;-82
2022/01/14 06:52:55;;;;;;;10.82;2.00;;;25.90;99.90;;;;;;5072403;28;20185;-82
2022/01/14 06:55:28;;;;;;;5.60;1.50;;;25.90;99.90;;;;;;5073942;28;20200;-81
2022/01/14 06:57:59;;;;;;;10.35;1.83;;;25.90;99.90;;;;;;5072976;28;20194;-81
2022/01/14 07:00:31;;;;;;;9.85;1.65;;;25.90;99.90;;;;;;5070612;28;20217;-81
2022/01/14 07:03:02;;;;;;;11.00;1.50;;;25.90;99.90;;;;;;5070183;28;20703;-83
2022/01/14 07:05:33;;;;;;;14.13;1.80;;;25.80;99.90;;;;;;5056044;28;20190;-82
2022/01/14 07:08:03;;;;;;;8.82;1.50;;;25.80;99.90;;;;;;5069290;28;20287;-82
2022/01/14 07:10:37;;;;;;;9.07;1.65;;;25.80;99.90;;;;;;5058225;28;20206;-82
2022/01/14 07:13:08;;;;;;;12.07;1.90;;;25.90;99.90;;;;;;5066536;28;20280;-81
2022/01/14 07:15:38;;;;;;;10.20;1.88;;;25.80;99.90;;;;;;5058141;28;20296;-81
2022/01/14 07:18:09;;;;;;;9.18;1.90;;;25.80;99.90;;;;;;5058784;28;20181;-83
2022/01/14 07:20:40;;;;;;;7.32;1.75;;;25.80;99.90;;;;;;5068689;28;20196;-83
2022/01/14 07:23:11;;;;;;;7.60;1.77;;;25.80;99.90;;;;;;5073474;28;20208;-81
2022/01/14 07:25:43;;;;;;;6.38;1.50;;;25.80;99.90;;;;;;5071400;28;20557;-82
2022/01/14 07:28:14;;;;;;;9.43;2.10;;;25.80;99.90;;;;;;5055017;28;20194;-83
2022/01/14 07:30:45;;;;;;;7.05;1.80;;;25.80;99.90;;;;;;5070456;28;20675;-83
2022/01/14 07:33:18;;;;;;;8.48;1.90;;;25.80;99.90;;;;;;5073480;28;20645;-82
2022/01/14 07:35:49;;;;;;;9.13;1.50;;;25.90;99.90;;;;;;5066142;28;20200;-82
2022/01/14 07:38:20;;;;;;;9.07;1.77;;;25.90;99.90;;;;;;5061543;28;20194;-82
2022/01/14 07:40:52;;;;;;;15.75;1.75;;;25.90;99.90;;;;;;5065402;28;20572;-81
2022/01/14 07:43:26;;;;;;;8.23;1.90;;;25.90;99.90;;;;;;5061247;28;20228;-82
2022/01/14 07:45:56;;;;;;;8.77;1.80;;;25.70;99.90;;;;;;5069049;28;20316;-81
2022/01/14 07:48:27;;;;;;;10.95;2.17;;;25.70;99.90;;;;;;5068034;28;20251;-81
2022/01/14 07:50:58;;;;;;;11.93;2.00;;;25.70;99.90;;;;;;5072435;28;20603;-81
2022/01/14 07:53:28;;;;;;;13.50;2.08;;;25.60;99.90;;;;;;5057215;28;20243;-81
2022/01/14 07:56:01;;;;;;;8.18;1.85;;;25.60;99.90;;;;;;5056437;28;20190;-81
2022/01/14 07:58:32;;;;;;;9.50;1.67;;;25.50;99.90;;;;;;5065631;28;20204;-82
2022/01/14 08:01:02;;;;;;;17.85;2.03;;;25.50;99.90;;;;;;5063457;28;20232;-82
2022/01/14 08:03:33;;;;;;;7.90;1.77;;;25.40;99.90;;;;;;5061238;28;20209;-81
2022/01/14 08:06:04;;;;;;;10.05;1.80;;;25.40;99.90;;;;;;5056581;28;20629;-81
2022/01/14 08:08:35;;;;;;;11.63;1.80;;;25.40;99.90;;;;;;5062772;28;20198;-81
2022/01/14 08:11:07;;;;;;;11.40;1.85;;;25.40;99.90;;;;;;5070130;28;20193;-81
2022/01/14 08:13:38;;;;;;;12.48;2.00;;;25.40;99.90;;;;;;5055627;28;20193;-81
2022/01/14 08:16:09;;;;;;;10.15;1.98;;;25.50;99.90;;;;;;5060397;28;20587;-82
2022/01/14 08:18:39;;;;;;;9.07;1.77;;;25.60;99.90;;;;;;5060978;28;20202;-82
2022/01/14 08:21:10;;;;;;;11.32;2.40;;;25.60;99.90;;;;;;5068680;28;20189;-81
2022/01/14 08:23:41;;;;;;;8.07;1.90;;;25.60;99.90;;;;;;5070531;28;20188;-82
2022/01/14 08:26:13;;;;;;;10.20;2.00;;;25.60;99.90;;;;;;5061631;28;20190;-82
2022/01/14 08:28:44;;;;;;;12.98;1.70;;;25.60;99.90;;;;;;5061609;28;20192;-82
2022/01/14 08:31:16;;;;;;;7.15;1.65;;;25.60;99.90;;;;;;5073038;28;20196;-81
2022/01/14 08:33:46;;;;;;;9.98;1.70;;;25.50;99.90;;;;;;5073059;28;20201;-82
2022/01/14 08:36:17;;;;;;;7.65;1.63;;;25.50;99.90;;;;;;5071820;28;20250;-81
2022/01/14 08:38:48;;;;;;;7.38;1.75;;;25.40;99.90;;;;;;5072919;28;20196;-81
2022/01/14 08:41:21;;;;;;;5.95;1.60;;;25.40;99.90;;;;;;5072962;28;20668;-82
2022/01/14 08:43:52;;;;;;;10.00;1.92;;;25.40;99.90;;;;;;5066009;28;20645;-81
2022/01/14 08:46:23;;;;;;;9.13;1.80;;;25.30;99.90;;;;;;5072912;28;20193;-82
2022/01/14 08:48:59;;;;;;;10.60;1.83;;;25.30;99.90;;;;;;5072401;28;20359;-81
2022/01/14 08:51:30;;;;;;;13.90;1.88;;;25.30;99.90;;;;;;5072223;28;20724;-82
2022/01/14 08:54:02;;;;;;;13.75;1.80;;;25.30;99.90;;;;;;5072354;28;20193;-82
2022/01/14 08:56:35;;;;;;;10.07;1.80;;;25.20;99.90;;;;;;5073083;28;20203;-82
2022/01/14 08:59:07;;;;;;;10.63;2.17;;;25.20;99.90;;;;;;5072523;28;20197;-81
2022/01/14 09:01:40;;;;;;;10.32;1.98;;;25.20;99.90;;;;;;5070869;28;20684;-82
2022/01/14 09:04:11;;;;;;;8.32;1.90;;;25.10;99.90;;;;;;5072764;28;20204;-81
2022/01/14 09:06:42;;;;;;;7.65;1.80;;;25.10;99.90;;;;;;5071582;28;20204;-81
2022/01/14 09:09:12;;;;;;;11.13;2.10;;;25.10;99.90;;;;;;5072549;28;20591;-82
2022/01/14 09:11:45;;;;;;;6.00;1.70;;;25.10;99.90;;;;;;5072854;28;20193;-81
2022/01/14 09:14:16;;;;;;;12.88;2.17;;;25.00;99.90;;;;;;5072059;28;20610;-81
2022/01/14 09:16:46;;;;;;;12.98;2.40;;;25.00;99.90;;;;;;5072427;28;20201;-82
2022/01/14 09:19:17;;;;;;;9.85;2.05;;;25.00;99.90;;;;;;5070488;28;20239;-81
2022/01/14 09:21:48;;;;;;;8.52;1.95;;;24.90;99.90;;;;;;5072228;28;20193;-81
2022/01/14 09:24:19;;;;;;;9.82;2.08;;;24.90;99.90;;;;;;5073717;28;20197;-81
2022/01/14 09:26:53;;;;;;;7.82;1.88;;;24.90;99.90;;;;;;5075741;28;20196;-82
2022/01/14 09:29:24;;;;;;;12.73;2.50;;;24.90;99.90;;;;;;5075790;28;20207;-81
2022/01/14 09:31:54;;;;;;;12.00;2.30;;;24.80;99.90;;;;;;5072741;28;20193;-81
2022/01/14 09:34:25;;;;;;;10.55;1.80;;;24.90;99.90;;;;;;5067600;28;20668;-81
2022/01/14 09:36:56;;;;;;;13.80;2.15;;;24.80;99.90;;;;;;5076066;28;20189;-81
2022/01/14 09:39:26;;;;;;;11.75;2.30;;;24.80;99.90;;;;;;5075612;28;20582;-81
2022/01/14 09:41:59;;;;;;;10.93;2.20;;;24.80;99.90;;;;;;5076059;28;20200;-81
2022/01/14 09:44:30;;;;;;;11.13;2.28;;;24.80;99.90;;;;;;5076176;28;20285;-82
2022/01/14 09:47:02;;;;;;;11.18;2.17;;;24.80;99.90;;;;;;5076125;28;20276;-81
2022/01/14 09:49:32;;;;;;;10.57;2.13;;;24.70;99.90;;;;;;5074868;28;20628;-81
2022/01/14 09:52:04;;;;;;;9.27;2.00;;;24.70;99.90;;;;;;5075702;28;20193;-81
2022/01/14 09:54:36;;;;;;;12.20;1.83;;;24.70;99.90;;;;;;5075911;28;20235;-82
2022/01/14 09:57:11;;;;;;;10.63;2.08;;;24.70;99.90;;;;;;5074717;28;20193;-81
2022/01/14 09:59:42;;;;;;;11.93;2.22;;;24.60;99.90;;;;;;5096322;28;20223;-81
2022/01/14 10:02:32;;;;;;;10.35;2.30;;;24.60;99.90;;;;;;5075247;28;20228;-81
2022/01/14 10:05:03;;;;;;;14.10;2.30;;;24.60;99.90;;;;;;5076029;28;20266;-81
2022/01/14 10:07:34;;;;;;;13.52;2.40;;;24.60;99.90;;;;;;5075662;28;20196;-82
2022/01/14 10:10:23;;;;;;;9.07;2.28;;;24.60;99.90;;;;;;5075623;28;20197;-81
2022/01/14 10:12:55;;;;;;;12.18;2.53;;;24.60;99.90;;;;;;5074674;28;20224;-82
2022/01/14 10:15:26;;;;;;;10.88;2.50;;;24.60;99.90;;;;;;5074906;28;20237;-82
2022/01/14 10:18:03;;;;;;;12.45;2.70;;;24.50;99.90;;;;;;5075717;28;20193;-82
2022/01/14 10:20:40;;;;;;;12.75;2.25;;;24.50;99.90;;;;;;5070206;28;20197;-82
2022/01/14 10:23:12;;;;;;;13.18;2.25;;;24.50;99.90;;;;;;5067813;28;20216;-83
2022/01/14 10:25:43;;;;;;;14.52;2.58;;;24.50;99.90;;;;;;5068516;28;20201;-82
2022/01/14 10:28:25;;;;;;;12.35;2.15;;;24.40;99.90;;;;;;5059403;28;20278;-82
2022/01/14 10:30:55;;;;;;;10.27;2.25;;;24.40;99.90;;;;;;5068344;28;20193;-83
2022/01/14 10:33:30;;;;;;;13.75;2.40;;;24.40;99.90;;;;;;5055298;28;20193;-82
2022/01/14 10:36:04;;;;;;;11.93;2.20;;;24.50;99.90;;;;;;5054067;28;20197;-82
2022/01/14 10:38:46;;;;;;;13.65;2.80;;;24.40;99.90;;;;;;5059486;28;20192;-82
2022/01/14 10:41:18;;;;;;;14.68;2.75;;;24.30;99.90;;;;;;5073480;28;20254;-82
2022/01/14 10:43:51;;;;;;;12.15;2.58;;;24.30;99.90;;;;;;5063447;28;20217;-82
2022/01/14 10:46:29;;;;;;;12.43;2.50;;;24.30;99.90;;;;;;5086467;28;20205;-83
2022/01/14 10:49:00;;;;;;;14.45;2.60;;;24.30;99.90;;;;;;5058931;28;20208;-82
2022/01/14 10:51:30;;;;;;;13.02;2.30;;;24.10;99.90;;;;;;5062970;28;20200;-82
2022/01/14 10:54:01;;;;;;;13.65;2.75;;;24.20;99.90;;;;;;5062882;28;20567;-81
2022/01/14 10:56:32;;;;;;;12.70;2.60;;;24.20;99.90;;;;;;5065562;28;20647;-82
2022/01/14 10:59:04;;;;;;;12.18;2.28;;;24.20;99.90;;;;;;5059106;28;20215;-82
2022/01/14 11:01:36;;;;;;;12.40;2.60;;;24.10;99.90;;;;;;5072823;28;20277;-82
2022/01/14 11:04:14;;;;;;;10.15;2.55;;;24.10;99.90;;;;;;5077017;28;20282;-82
2022/01/14 11:06:45;;;;;;;12.05;2.50;;;24.10;99.90;;;;;;5054609;28;20189;-82
2022/01/14 11:09:17;;;;;;;14.27;2.72;;;24.10;99.90;;;;;;5061544;28;20665;-82
2022/01/14 11:11:48;;;;;;;11.77;2.70;;;24.00;99.90;;;;;;5066760;28;20232;-82
2022/01/14 11:14:21;;;;;;;16.60;3.17;;;24.00;99.90;;;;;;5062322;28;20236;-83
2022/01/14 11:16:52;;;;;;;15.70;2.72;;;24.00;99.90;;;;;;5058352;28;20617;-82
2022/01/14 11:19:24;;;;;;;14.30;2.50;;;24.00;99.90;;;;;;5065019;28;20629;-82
2022/01/14 11:24:41;;;;;;;18.55;3.30;;;24.00;99.90;;;;;;5072369;28;20235;-82
2022/01/14 11:27:14;;;;;;;11.65;2.63;;;23.90;99.90;;;;;;5061538;28;20201;-81
2022/01/14 11:29:48;;;;;;;20.50;3.35;;;23.90;99.90;;;;;;5069331;28;20197;-82
2022/01/14 11:32:19;;;;;;;16.40;2.97;;;23.90;99.90;;;;;;5068222;28;20201;-82
2022/01/14 11:34:50;;;;;;;21.35;3.33;;;23.80;99.90;;;;;;5063177;28;20209;-82
2022/01/14 11:37:37;;;;;;;23.80;3.38;;;23.80;99.90;;;;;;5063320;28;20204;-82
2022/01/14 11:40:10;;;;;;;16.98;3.30;;;23.80;99.90;;;;;;5062036;28;20219;-82
2022/01/14 11:42:46;;;;;;;17.85;3.65;;;23.80;99.90;;;;;;5065457;28;20242;-82
2022/01/14 11:45:20;;;;;;;21.00;3.08;;;23.80;99.90;;;;;;5067349;28;20209;-82
2022/01/14 11:48:00;;;;;;;18.52;3.13;;;23.70;99.90;;;;;;5056106;28;20198;-82
2022/01/14 11:50:50;;;;;;;15.43;2.80;;;23.70;99.90;;;;;;5072816;28;20235;-82
2022/01/14 11:53:45;;;;;;;14.57;3.03;;;23.70;99.90;;;;;;5059028;28;20657;-82
2022/01/14 11:56:48;;;;;;;14.00;3.13;;;23.70;99.90;;;;;;5053975;28;20194;-82
2022/01/14 11:59:46;;;;;;;17.52;2.85;;;23.70;99.90;;;;;;5053289;28;20251;-83
2022/01/14 12:02:39;;;;;;;11.38;2.70;;;23.60;99.90;;;;;;5051552;28;20278;-82
2022/01/14 12:05:16;;;;;;;16.60;3.08;;;23.60;99.90;;;;;;5057776;28;20193;-82
2022/01/14 12:08:19;;;;;;;13.13;2.90;;;23.60;99.90;;;;;;5066015;28;20257;-82
2022/01/14 12:10:54;;;;;;;17.20;3.50;;;23.60;99.90;;;;;;5061425;28;20197;-82
2022/01/14 12:13:36;;;;;;;12.93;2.88;;;23.60;99.90;;;;;;5058760;28;20244;-82
2022/01/14 12:16:09;;;;;;;18.63;3.17;;;23.50;99.90;;;;;;5059743;28;20193;-82
2022/01/14 12:19:15;;;;;;;11.48;2.67;;;23.60;99.90;;;;;;5058032;28;20648;-83
2022/01/14 12:22:08;;;;;;;11.38;2.60;;;23.50;99.90;;;;;;5055959;28;20259;-82
2022/01/14 12:24:58;;;;;;;15.38;2.70;;;23.50;99.90;;;;;;5065139;28;20264;-82
2022/01/14 12:27:50;;;;;;;13.38;2.80;;;23.40;99.90;;;;;;5052930;28;20193;-82
2022/01/14 12:30:30;;;;;;;13.88;2.60;;;23.50;99.90;;;;;;5065357;28;20204;-82
2022/01/14 12:33:01;;;;;;;15.13;2.85;;;23.40;99.90;;;;;;5063077;28;20287;-83
2022/01/14 12:35:35;;;;;;;16.20;2.90;;;23.40;99.90;;;;;;5063119;28;20200;-82
2022/01/14 12:38:07;;;;;;;15.98;3.13;;;23.40;99.90;;;;;;5064567;28;20198;-82
2022/01/14 12:40:43;;;;;;;14.32;3.03;;;23.30;99.90;;;;;;5064966;28;20816;-82
2022/01/14 12:43:14;;;;;;;16.70;3.33;;;23.30;99.90;;;;;;5065346;28;20216;-82
2022/01/14 12:46:02;;;;;;;16.48;3.25;;;23.30;99.90;;;;;;5066201;28;20597;-82
2022/01/14 12:48:48;;;;;;;12.15;3.20;;;23.30;99.90;;;;;;5067754;28;20212;-83
2022/01/14 12:51:21;;;;;;;15.20;3.47;;;23.20;99.90;;;;;;5065453;28;20250;-82
2022/01/14 12:53:59;;;;;;;15.02;3.10;;;23.20;99.90;;;;;;5066803;28;20680;-82
2022/01/14 12:56:32;;;;;;;14.55;3.75;;;23.20;99.90;;;;;;5065568;28;20279;-82
2022/01/14 12:59:07;;;;;;;17.73;3.60;;;23.20;99.90;;;;;;5065197;28;20204;-82
2022/01/14 13:01:40;;;;;;;14.85;3.15;;;23.20;99.90;;;;;;5069153;28;20771;-81
2022/01/14 13:04:12;;;;;;;17.17;3.20;;;23.20;99.90;;;;;;5067728;28;20213;-81
2022/01/14 13:06:48;;;;;;;16.15;3.25;;;23.10;99.90;;;;;;5067468;28;21452;-81
2022/01/14 13:09:26;;;;;;;12.52;3.00;;;23.10;99.90;;;;;;5068060;28;20208;-82
2022/01/14 13:12:00;;;;;;;12.20;3.10;;;23.10;99.90;;;;;;5068910;28;20236;-82
2022/01/14 13:14:36;;;;;;;9.98;3.00;;;23.10;99.90;;;;;;5069268;28;20314;-82
2022/01/14 13:17:12;;;;;;;13.73;3.25;;;23.10;99.90;;;;;;5069551;28;20751;-83
2022/01/14 13:19:43;;;;;;;16.33;3.25;;;23.10;99.90;;;;;;5069381;28;20204;-81
2022/01/14 13:22:15;;;;;;;19.70;3.35;;;23.00;99.90;;;;;;5069018;28;20208;-82
2022/01/14 13:24:49;;;;;;;13.30;3.40;;;23.00;99.90;;;;;;5068945;28;20266;-83
2022/01/14 13:27:25;;;;;;;12.23;3.25;;;23.00;99.90;;;;;;5074640;28;20250;-81
2022/01/14 13:29:58;;;;;;;15.05;3.53;;;22.90;99.90;;;;;;5074791;28;20196;-81